Time;durP1;ratioP1;P1;durP2;ratioP2;P2;SDS_P1;SDS_P2;PMS_P1;PMS_P2;Temp;Humidity;BMP_temperature;BMP_pressure;BME280_temperature;BME280_humidity;BME280_pressure;Samples;Min_cycle;Max_cycle;Signal;HPM_P1;HPM_P2
2022/04/17 00:01:54;;;;;;;2.58;2.33;;;;;;;15.52;43.43;101138.72;5065900;28;20463;-73
2022/04/17 00:05:09;;;;;;;2.60;2.40;;;;;;;15.84;42.56;101140.84;5098656;27;20459;-74
2022/04/17 00:07:36;;;;;;;2.95;2.30;;;;;;;15.76;42.65;101130.31;5086436;28;20437;-73
2022/04/17 00:10:05;;;;;;;3.10;2.60;;;;;;;15.86;42.75;101121.94;5086495;28;20417;-73
2022/04/17 00:12:32;;;;;;;2.35;2.15;;;;;;;15.86;42.38;101122.78;5083790;28;20414;-73
2022/04/17 00:15:00;;;;;;;2.50;2.30;;;;;;;15.74;42.88;101110.97;5085955;28;20406;-74
2022/04/17 00:17:27;;;;;;;2.30;2.10;;;;;;;15.43;43.84;101124.66;5086361;28;20467;-73
2022/04/17 00:19:54;;;;;;;2.33;2.13;;;;;;;15.73;43.02;101117.31;5085788;28;20891;-73
2022/04/17 00:24:17;;;;;;;2.90;2.40;;;;;;;15.91;42.70;101118.69;5089118;27;20463;-74
2022/04/17 00:26:44;;;;;;;2.35;2.15;;;;;;;15.92;42.68;101123.84;5086413;28;20554;-73
2022/04/17 00:29:11;;;;;;;2.78;2.30;;;;;;;15.91;42.96;101116.84;5083312;28;20433;-74
2022/04/17 00:31:38;;;;;;;2.40;2.20;;;;;;;15.90;42.76;101117.03;5086363;28;20457;-73
2022/04/17 00:34:05;;;;;;;4.18;2.10;;;;;;;15.94;43.14;101121.81;5085880;28;20795;-74
2022/04/17 00:38:15;;;;;;;2.40;2.20;;;;;;;15.91;43.95;101126.72;5074999;27;2153112;-73
2022/04/17 00:40:42;;;;;;;2.90;2.10;;;;;;;15.91;43.63;101132.88;5147533;27;20397;-73
2022/04/17 00:43:21;;;;;;;2.80;2.20;;;;;;;15.94;43.76;101123.66;5147552;27;20440;-73
2022/04/17 00:45:48;;;;;;;2.90;2.30;;;;;;;15.78;43.63;101127.44;5147282;27;20415;-72
2022/04/17 00:48:15;;;;;;;2.75;2.50;;;;;;;15.78;43.78;101124.78;5147727;27;20521;-72
2022/04/17 00:50:42;;;;;;;3.17;2.38;;;;;;;15.62;44.10;101126.66;5147725;27;20438;-73
2022/04/17 00:53:38;;;;;;;4.05;2.40;;;;;;;15.82;43.69;101121.50;5040121;27;2073500;-73
2022/04/17 00:58:01;;;;;;;3.00;2.40;;;;;;;15.72;43.78;101118.34;5068733;27;20458;-73
2022/04/17 01:00:27;;;;;;;2.97;2.40;;;;;;;15.79;43.34;101116.56;5066240;28;21462;-73
2022/04/17 01:02:54;;;;;;;2.60;2.10;;;;;;;15.62;43.67;101118.66;5065846;28;20912;-72
2022/04/17 01:07:37;;;;;;;2.70;2.50;;;;;;;15.82;43.55;101108.16;5090111;27;20406;-73
2022/04/17 01:10:07;;;;;;;3.17;2.42;;;;;;;15.79;43.82;101110.38;5086508;28;20937;-74
2022/04/17 01:12:48;;;;;;;2.90;2.50;;;;;;;15.81;43.87;101113.69;5052125;28;20414;-71
2022/04/17 01:15:15;;;;;;;3.50;2.25;;;;;;;15.77;43.83;101115.94;5046367;28;20468;-73
2022/04/17 01:17:42;;;;;;;2.80;2.50;;;;;;;15.79;43.51;101103.22;5045900;28;20916;-73
2022/04/17 01:20:11;;;;;;;3.05;2.58;;;;;;;15.79;43.57;101110.38;5045751;28;20414;-74
2022/04/17 01:26:56;;;;;;;3.67;2.50;;;;;;;15.80;43.47;101118.22;5090263;27;20460;-73
2022/04/17 01:28:26;;;;;;;3.08;2.40;;;;;;;15.74;43.50;101116.31;5085391;28;20397;-73
2022/04/17 01:33:53;;;;;;;3.20;2.30;;;;;;;15.68;43.68;101114.38;5050598;28;20459;-73
2022/04/17 01:36:20;;;;;;;3.07;2.47;;;;;;;15.71;43.78;101119.34;5046010;28;20424;-72
2022/04/17 01:38:47;;;;;;;3.08;2.55;;;;;;;15.72;43.85;101118.34;5045830;28;20413;-73
2022/04/17 01:42:44;;;;;;;4.13;2.70;;;;;;;15.65;43.96;101120.13;5047930;28;20410;-75
2022/04/17 01:45:11;;;;;;;3.15;2.47;;;;;;;15.68;43.73;101115.22;5045908;28;20441;-73
2022/04/17 01:47:37;;;;;;;3.00;2.70;;;;;;;15.68;43.61;101122.41;5046294;28;20441;-73
2022/04/17 01:50:05;;;;;;;3.15;2.60;;;;;;;15.68;44.08;101125.06;5045526;28;20410;-74
2022/04/17 01:52:32;;;;;;;3.47;2.78;;;;;;;15.67;44.00;101116.22;5046256;28;20410;-72
2022/04/17 01:54:59;;;;;;;3.67;2.90;;;;;;;15.70;43.92;101106.16;5046311;28;20416;-73
2022/04/17 01:57:26;;;;;;;3.60;3.00;;;;;;;15.62;44.68;101107.16;5046170;28;20442;-73
2022/04/17 01:59:54;;;;;;;4.57;2.60;;;;;;;15.68;44.70;101099.19;5046116;28;20441;-74
2022/04/17 02:04:39;;;;;;;3.67;2.78;;;;;;;15.68;44.91;101091.19;5069215;27;20408;-74
2022/04/17 02:08:21;;;;;;;3.60;2.65;;;;;;;15.58;44.80;101095.19;5088969;27;20398;-72
2022/04/17 02:10:48;;;;;;;3.78;2.70;;;;;;;15.63;45.06;101090.09;5086461;28;20424;-72
2022/04/17 02:13:15;;;;;;;2.88;2.67;;;;;;;15.55;45.04;101096.41;5086030;28;20447;-73
2022/04/17 02:15:42;;;;;;;4.10;2.40;;;;;;;15.56;45.16;101097.25;5086338;28;20410;-73
2022/04/17 02:18:10;;;;;;;3.03;2.20;;;;;;;15.42;45.45;101097.13;5086119;28;20414;-73
2022/04/17 02:20:37;;;;;;;2.83;2.55;;;;;;;15.45;45.80;101095.94;5085892;28;20417;-73
2022/04/17 02:25:16;;;;;;;4.15;2.50;;;;;;;15.46;46.21;101086.88;5077120;27;2093668;-73
2022/04/17 02:27:44;;;;;;;3.15;2.40;;;;;;;15.44;46.67;101088.91;5147921;27;20401;-73
2022/04/17 02:31:44;;;;;;;3.05;2.50;;;;;;;15.45;47.03;101087.91;5047945;28;20467;-73
2022/04/17 02:34:11;;;;;;;3.30;2.38;;;;;;;15.28;47.13;101087.34;5045859;28;20440;-72
2022/04/17 02:36:38;;;;;;;4.75;2.47;;;;;;;15.37;46.91;101094.19;5046167;28;20445;-72
2022/04/17 02:39:06;;;;;;;3.40;2.60;;;;;;;15.35;47.06;101090.06;5046278;28;20500;-73
2022/04/17 02:44:01;;;;;;;2.83;2.50;;;;;;;15.32;47.14;101099.28;5049348;28;20459;-73
2022/04/17 02:49:13;;;;;;;3.40;2.60;;;;;;;15.22;47.43;101104.13;5027045;28;20409;-73
2022/04/17 02:51:40;;;;;;;2.97;2.55;;;;;;;15.21;47.44;101100.63;5027093;28;20422;-73
2022/04/17 02:54:08;;;;;;;3.40;2.80;;;;;;;15.21;46.93;101095.28;5026839;28;20459;-73
2022/04/17 02:57:30;;;;;;;3.83;2.70;;;;;;;15.23;47.00;101084.41;5106111;27;20815;-74
2022/04/17 02:59:57;;;;;;;2.80;2.45;;;;;;;15.17;47.19;101094.00;5107808;28;20404;-73
2022/04/17 03:06:15;;;;;;;3.47;2.10;;;;;;;15.16;46.72;101097.72;5085358;28;20525;-73
2022/04/17 03:08:43;;;;;;;2.25;1.90;;;;;;;15.10;46.26;101101.13;5086839;28;20414;-74
2022/04/17 03:11:11;;;;;;;2.60;2.00;;;;;;;15.16;46.50;101096.88;5086581;28;20414;-74
2022/04/17 03:13:38;;;;;;;2.93;2.30;;;;;;;15.10;46.40;101090.44;5094947;28;20469;-73
2022/04/17 03:16:08;;;;;;;2.50;2.20;;;;;;;15.14;46.50;101093.56;5097241;28;20433;-73
2022/04/17 03:18:36;;;;;;;2.58;2.00;;;;;;;15.04;46.28;101092.03;5088791;28;20421;-74
2022/04/17 03:21:06;;;;;;;2.00;1.90;;;;;;;14.91;46.56;101098.09;5086355;28;20440;-74
2022/04/17 03:23:33;;;;;;;3.60;2.38;;;;;;;14.97;46.34;101101.00;5083801;28;20411;-73
2022/04/17 03:28:33;;;;;;;2.55;2.13;;;;;;;14.97;46.48;101101.84;5067958;28;20412;-73
2022/04/17 03:31:00;;;;;;;2.20;2.00;;;;;;;14.98;46.06;101106.16;5066512;28;20491;-73
2022/04/17 03:33:28;;;;;;;2.75;2.10;;;;;;;14.95;46.30;101109.22;5066398;28;20408;-74
2022/04/17 03:35:55;;;;;;;3.20;2.20;;;;;;;14.99;46.53;101109.66;5065764;28;20419;-74
2022/04/17 03:39:16;;;;;;;2.67;1.83;;;;;;;14.90;46.18;101114.28;5107947;27;20474;-74
2022/04/17 03:41:43;;;;;;;2.88;2.10;;;;;;;14.88;46.56;101116.31;5106702;28;20416;-71
2022/04/17 03:44:11;;;;;;;5.05;2.42;;;;;;;14.88;46.39;101114.47;5106950;28;20487;-72
2022/04/17 03:46:37;;;;;;;3.47;2.27;;;;;;;14.87;46.19;101118.16;5109307;28;20511;-70
2022/04/17 03:49:04;;;;;;;3.97;2.50;;;;;;;14.88;46.13;101117.13;5117053;28;20476;-72
2022/04/17 03:51:31;;;;;;;4.37;2.63;;;;;;;14.82;46.09;101117.06;5109573;28;20409;-71
2022/04/17 03:53:58;;;;;;;3.10;2.22;;;;;;;14.82;45.81;101125.06;5106833;28;20413;-70
2022/04/17 03:56:27;;;;;;;3.90;2.33;;;;;;;14.85;45.99;101124.69;5106652;28;20453;-72
2022/04/17 03:58:54;;;;;;;3.85;2.20;;;;;;;14.79;46.38;101128.13;5103815;28;20433;-72
2022/04/17 04:01:21;;;;;;;4.38;2.42;;;;;;;14.81;46.15;101131.44;5106531;28;20459;-72
2022/04/17 04:03:48;;;;;;;4.15;2.20;;;;;;;14.81;46.19;101129.56;5105913;28;20416;-71
2022/04/17 04:06:16;;;;;;;4.78;2.10;;;;;;;14.75;46.57;101135.69;5103441;28;20489;-74
2022/04/17 04:08:43;;;;;;;2.60;1.90;;;;;;;14.73;46.86;101135.03;5110761;28;20446;-71
2022/04/17 04:11:10;;;;;;;4.03;1.90;;;;;;;14.72;46.96;101131.53;5113088;28;20446;-71
2022/04/17 04:13:38;;;;;;;2.90;2.10;;;;;;;14.72;47.61;101131.53;5112158;28;20925;-71
2022/04/17 04:16:06;;;;;;;2.75;2.10;;;;;;;14.70;47.33;101140.75;5097688;28;20777;-71
2022/04/17 04:18:33;;;;;;;3.03;2.17;;;;;;;14.70;47.47;101130.88;5106236;28;20471;-72
2022/04/17 04:21:00;;;;;;;3.50;2.13;;;;;;;14.64;47.32;101141.47;5106470;28;20405;-71
2022/04/17 04:23:27;;;;;;;3.70;2.30;;;;;;;14.67;47.84;101138.44;5106504;28;20443;-74
2022/04/17 04:25:54;;;;;;;2.80;2.20;;;;;;;14.63;47.84;101134.50;5106383;28;20436;-71
2022/04/17 04:31:07;;;;;;;5.00;2.37;;;;;;;14.53;48.92;101142.75;5106371;28;20516;-74
2022/04/17 04:34:31;;;;;;;4.40;2.20;;;;;;;14.54;48.74;101141.75;5127238;27;20451;-72
2022/04/17 04:36:58;;;;;;;4.05;2.28;;;;;;;14.51;48.72;101148.28;5127807;28;20410;-73
2022/04/17 04:39:25;;;;;;;3.47;2.17;;;;;;;14.47;49.19;101152.31;5127738;28;20414;-73
2022/04/17 04:41:52;;;;;;;3.53;2.50;;;;;;;14.39;49.55;101160.44;5127738;27;20417;-73
2022/04/17 04:44:19;;;;;;;3.33;2.53;;;;;;;14.41;49.88;101160.25;5127659;28;20415;-73
2022/04/17 04:46:45;;;;;;;3.63;2.75;;;;;;;14.39;50.08;101152.44;5127979;27;20438;-74
2022/04/17 04:49:30;;;;;;;3.78;3.38;;;;;;;14.38;50.58;101160.59;5127984;27;20950;-73
2022/04/17 04:52:00;;;;;;;6.43;4.00;;;;;;;14.37;50.76;101156.28;5127510;27;20925;-73
2022/04/17 04:54:27;;;;;;;6.78;3.83;;;;;;;14.39;50.58;101154.28;5127375;28;20423;-73
2022/04/17 04:56:54;;;;;;;5.20;2.90;;;;;;;14.38;49.90;101157.94;5127765;28;20406;-73
2022/04/17 04:59:22;;;;;;;5.32;3.00;;;;;;;14.34;49.91;101160.16;5127979;28;20411;-73
2022/04/17 05:01:49;;;;;;;6.18;2.97;;;;;;;14.37;50.20;101162.44;5127263;28;20788;-73
2022/04/17 05:04:17;;;;;;;3.78;2.70;;;;;;;14.31;49.67;101163.16;5127334;27;20441;-73
2022/04/17 05:06:44;;;;;;;5.37;2.90;;;;;;;14.29;49.70;101170.53;5127261;28;20457;-72
2022/04/17 05:09:13;;;;;;;4.07;2.60;;;;;;;14.26;49.67;101162.88;5127187;28;20402;-73
2022/04/17 05:11:41;;;;;;;5.97;3.00;;;;;;;14.32;49.55;101167.50;5127101;28;20867;-74
2022/04/17 05:14:09;;;;;;;5.90;2.80;;;;;;;14.27;49.42;101175.22;5127092;28;20442;-74
2022/04/17 05:16:36;;;;;;;5.15;3.03;;;;;;;14.29;49.81;101174.00;5127291;28;20415;-73
2022/04/17 05:19:24;;;;;;;28.67;23.90;;;;;;;14.37;50.33;101178.47;5127098;28;20399;-74
2022/04/17 05:21:57;;;;;;;13.75;8.57;;;;;;;14.39;50.21;101183.59;5127224;27;20407;-72
2022/04/17 05:24:25;;;;;;;7.75;6.07;;;;;;;14.35;49.78;101177.81;5127186;28;20505;-73
2022/04/17 05:26:52;;;;;;;7.63;6.57;;;;;;;14.32;49.65;101179.00;5126907;27;20438;-73
2022/04/17 05:29:20;;;;;;;6.60;5.90;;;;;;;14.38;49.20;101185.44;5126776;28;20415;-73
2022/04/17 05:33:01;;;;;;;10.55;9.65;;;;;;;14.38;49.22;101177.44;5116939;27;2039491;-74
2022/04/17 05:35:28;;;;;;;8.02;6.25;;;;;;;14.22;49.20;101182.94;5169525;27;20411;-74
2022/04/17 05:37:55;;;;;;;6.72;5.95;;;;;;;14.31;48.56;101181.84;5169610;27;20411;-74
2022/04/17 05:41:49;;;;;;;6.47;4.95;;;;;;;14.29;48.70;101178.53;5106727;27;20400;-73
2022/04/17 05:44:17;;;;;;;7.05;5.28;;;;;;;14.41;48.40;101178.91;5107361;28;20790;-73
2022/04/17 05:46:44;;;;;;;7.65;5.55;;;;;;;14.23;48.44;101189.94;5107474;28;20404;-73
2022/04/17 05:49:11;;;;;;;7.72;5.00;;;;;;;14.03;48.87;101187.78;5107205;28;20440;-73
2022/04/17 05:51:39;;;;;;;7.45;6.20;;;;;;;13.99;48.44;101196.31;5107451;28;20409;-72
2022/04/17 05:54:07;;;;;;;7.25;5.45;;;;;;;14.21;48.43;101186.63;5107352;28;20436;-73
2022/04/17 05:56:34;;;;;;;8.88;6.53;;;;;;;14.32;48.29;101194.19;5106988;28;20404;-71
2022/04/17 05:59:03;;;;;;;7.80;5.80;;;;;;;14.38;48.83;101197.94;5107031;28;20419;-72
2022/04/17 06:01:30;;;;;;;7.03;5.90;;;;;;;14.41;48.10;101193.06;5107135;28;20431;-71
2022/04/17 06:03:57;;;;;;;8.63;6.90;;;;;;;14.32;48.36;101200.31;5107163;28;20440;-73
2022/04/17 06:06:24;;;;;;;7.45;6.15;;;;;;;14.37;48.23;101197.13;5106823;28;20851;-73
2022/04/17 06:08:51;;;;;;;10.57;6.30;;;;;;;14.07;48.35;101196.25;5107060;28;20433;-73
2022/04/17 06:11:18;;;;;;;9.02;7.07;;;;;;;14.29;48.10;101198.00;5106834;28;20444;-73
2022/04/17 06:13:45;;;;;;;15.50;8.93;;;;;;;14.39;49.07;101203.09;5092853;28;20420;-73
2022/04/17 06:16:14;;;;;;;19.45;10.00;;;;;;;14.42;49.17;101208.06;5088643;28;20410;-72
2022/04/17 06:19:43;;;;;;;17.23;8.93;;;;;;;14.49;49.55;101211.63;5083444;28;20460;-72
2022/04/17 06:22:12;;;;;;;11.80;8.10;;;;;;;14.51;48.61;101211.47;5086181;28;20926;-74
2022/04/17 06:24:39;;;;;;;10.80;7.55;;;;;;;14.49;49.45;101213.50;5085752;28;20411;-72
2022/04/17 06:27:06;;;;;;;12.88;10.65;;;;;;;14.49;49.73;101213.50;5086822;28;20442;-75
2022/04/17 06:29:34;;;;;;;12.20;8.07;;;;;;;14.51;50.21;101220.31;5086140;28;20410;-72
2022/04/17 06:32:01;;;;;;;10.98;7.85;;;;;;;14.53;50.29;101225.44;5085512;28;20509;-73
2022/04/17 06:34:28;;;;;;;11.20;7.50;;;;;;;14.53;50.16;101236.09;5085324;28;20471;-72
2022/04/17 06:36:57;;;;;;;11.50;8.35;;;;;;;14.48;50.77;101239.34;5085780;28;20501;-73
2022/04/17 06:39:24;;;;;;;12.18;8.35;;;;;;;14.50;50.71;101241.84;5081958;28;20464;-73
2022/04/17 06:41:50;;;;;;;16.75;9.82;;;;;;;14.44;50.41;101258.53;5065421;28;20447;-72
2022/04/17 06:44:17;;;;;;;16.25;12.45;;;;;;;14.35;50.41;101255.16;5065210;28;20893;-72
2022/04/17 06:46:44;;;;;;;14.32;8.02;;;;;;;14.30;51.85;101265.53;5065967;28;20412;-71
2022/04/17 06:49:11;;;;;;;11.27;6.43;;;;;;;14.17;51.76;101276.81;5065863;28;20447;-69
2022/04/17 06:51:38;;;;;;;6.85;5.40;;;;;;;13.81;51.30;101271.25;5065576;28;20411;-70
2022/04/17 06:54:07;;;;;;;6.40;5.18;;;;;;;13.87;52.28;101274.03;5062261;28;20854;-69
2022/04/17 06:56:33;;;;;;;6.97;5.07;;;;;;;13.65;54.40;101280.19;5059266;28;20791;-70
2022/04/17 06:59:01;;;;;;;11.73;6.68;;;;;;;13.45;56.10;101280.66;5061466;28;20431;-70
2022/04/17 07:01:28;;;;;;;7.90;5.87;;;;;;;13.45;56.82;101285.13;5059447;28;20419;-70
2022/04/17 07:03:55;;;;;;;7.00;4.07;;;;;;;13.26;57.06;101286.38;5062636;28;20923;-70
2022/04/17 07:06:22;;;;;;;6.57;4.57;;;;;;;12.80;58.72;101295.84;5062485;28;20419;-70
2022/04/17 07:08:49;;;;;;;4.30;3.30;;;;;;;12.17;58.74;101308.06;5062909;28;20789;-69
2022/04/17 07:11:19;;;;;;;8.55;3.72;;;;;;;11.61;59.76;101306.94;5060490;28;20466;-69
2022/04/17 07:13:47;;;;;;;6.45;3.38;;;;;;;11.13;59.46;101308.41;5062897;28;20412;-70
2022/04/17 07:16:14;;;;;;;5.78;3.25;;;;;;;10.73;60.80;101315.97;5059626;28;20423;-68
2022/04/17 07:18:41;;;;;;;6.82;4.00;;;;;;;10.48;61.38;101334.38;5061015;28;21026;-69
2022/04/17 07:21:08;;;;;;;7.05;4.07;;;;;;;10.04;61.93;101328.19;5059815;28;20447;-69
2022/04/17 07:23:34;;;;;;;9.35;4.30;;;;;;;10.11;62.58;101335.38;5057921;28;20452;-69
2022/04/17 07:26:01;;;;;;;6.10;3.97;;;;;;;9.81;62.19;101360.38;5061446;28;20448;-69
2022/04/17 07:28:49;;;;;;;6.93;4.53;;;;;;;9.96;62.93;101336.88;5061779;28;20450;-68
2022/04/17 07:31:16;;;;;;;8.45;4.00;;;;;;;9.74;63.37;101338.97;5046709;28;20408;-69
2022/04/17 07:33:42;;;;;;;6.93;3.85;;;;;;;9.53;63.16;101352.47;5045626;28;20449;-69
2022/04/17 07:36:09;;;;;;;8.13;4.20;;;;;;;9.21;64.56;101360.84;5047003;28;20933;-69
2022/04/17 07:38:36;;;;;;;6.15;3.70;;;;;;;8.97;65.04;101382.50;5041701;28;20863;-68
2022/04/17 07:41:04;;;;;;;5.32;3.63;;;;;;;8.98;64.25;101353.28;5032090;28;20848;-68
2022/04/17 07:43:32;;;;;;;6.70;4.47;;;;;;;9.05;64.69;101358.78;5030924;28;20418;-68
2022/04/17 07:45:59;;;;;;;7.25;4.63;;;;;;;8.94;66.16;101364.25;5045218;28;20543;-68
2022/04/17 07:48:26;;;;;;;4.20;3.60;;;;;;;8.85;64.61;101349.25;5046169;28;20425;-68
2022/04/17 07:50:54;;;;;;;5.57;3.55;;;;;;;8.92;64.00;101396.13;5047473;28;20455;-67
2022/04/17 07:53:21;;;;;;;6.23;3.67;;;;;;;8.65;65.47;101365.16;5045903;28;20418;-68
2022/04/17 07:55:48;;;;;;;5.35;4.35;;;;;;;8.55;65.73;101366.97;5046091;28;20923;-66
2022/04/17 07:58:23;;;;;;;5.30;4.20;;;;;;;8.71;65.47;101376.97;5044078;28;20983;-67
2022/04/17 08:00:57;;;;;;;5.18;4.00;;;;;;;8.70;65.64;101368.22;5046756;28;20444;-67
2022/04/17 08:03:35;;;;;;;5.80;4.40;;;;;;;8.74;65.69;101368.75;5047018;28;20492;-67
2022/04/17 08:06:04;;;;;;;6.43;4.72;;;;;;;8.63;66.31;101377.69;5044347;28;20409;-66
2022/04/17 08:08:31;;;;;;;5.90;5.30;;;;;;;8.86;66.62;101374.69;5047107;28;20504;-67
2022/04/17 08:10:59;;;;;;;6.53;4.50;;;;;;;8.92;65.03;101368.88;5045667;28;20858;-66
2022/04/17 08:13:26;;;;;;;5.25;4.75;;;;;;;8.58;67.01;101379.91;5047511;28;20413;-67
2022/04/17 08:15:54;;;;;;;5.70;4.32;;;;;;;8.23;67.45;101386.56;5039811;28;20485;-67
2022/04/17 08:18:21;;;;;;;6.40;5.00;;;;;;;8.30;67.45;101382.41;5040330;28;20475;-67
2022/04/17 08:20:48;;;;;;;5.68;4.57;;;;;;;8.16;67.82;101390.72;5066131;28;20450;-67
2022/04/17 08:23:15;;;;;;;4.75;4.30;;;;;;;8.19;67.19;101372.78;5067998;28;20407;-67
2022/04/17 08:25:42;;;;;;;5.90;4.90;;;;;;;8.22;67.62;101382.25;5065290;28;20415;-67
2022/04/17 08:28:09;;;;;;;8.73;7.32;;;;;;;8.35;67.46;101371.41;5066087;28;20411;-67
2022/04/17 08:33:24;;;;;;;5.40;4.90;;;;;;;8.14;66.70;101379.44;5067861;28;20934;-67
2022/04/17 08:35:54;;;;;;;7.25;6.13;;;;;;;8.09;66.30;101371.13;5066039;28;20413;-67
2022/04/17 08:38:22;;;;;;;6.63;5.87;;;;;;;8.00;66.90;101391.25;5063731;28;20457;-67
2022/04/17 08:40:50;;;;;;;4.78;4.32;;;;;;;7.99;66.46;101418.59;5063474;28;20505;-67
2022/04/17 08:43:22;;;;;;;6.43;5.82;;;;;;;8.00;67.05;101401.81;5066772;28;20788;-67
2022/04/17 08:45:51;;;;;;;9.23;8.27;;;;;;;8.14;66.78;101396.13;5066749;28;20414;-66
2022/04/17 08:48:18;;;;;;;5.40;4.88;;;;;;;8.17;66.57;101390.56;5062932;28;20424;-67
2022/04/17 08:50:50;;;;;;;4.93;4.17;;;;;;;7.99;66.56;101386.94;5065816;28;20452;-67
2022/04/17 08:53:18;;;;;;;6.60;5.90;;;;;;;8.16;66.93;101383.63;5063264;28;20411;-67
2022/04/17 08:55:45;;;;;;;8.63;6.43;;;;;;;8.19;66.14;101395.72;5066768;28;20419;-67
2022/04/17 09:00:32;;;;;;;5.95;5.40;;;;;;;8.19;67.20;101388.63;5063990;27;20404;-67
2022/04/17 09:03:00;;;;;;;6.18;5.57;;;;;;;8.10;67.14;101402.63;5043267;28;20420;-67
2022/04/17 09:05:28;;;;;;;4.40;4.00;;;;;;;7.97;66.54;101397.63;5045945;28;20413;-67
2022/04/17 09:07:55;;;;;;;5.70;4.57;;;;;;;7.93;67.25;101421.81;5045394;28;20424;-67
2022/04/17 09:10:26;;;;;;;4.50;4.10;;;;;;;7.82;67.04;101388.44;5045410;28;20445;-67
2022/04/17 09:12:55;;;;;;;4.30;3.87;;;;;;;7.91;67.02;101413.19;5045109;28;20497;-66
2022/04/17 09:15:27;;;;;;;6.53;5.93;;;;;;;8.03;66.60;101398.88;5045875;28;20445;-67
2022/04/17 09:17:55;;;;;;;5.22;4.72;;;;;;;8.00;67.08;101410.56;5046583;28;20401;-67
2022/04/17 09:20:24;;;;;;;4.87;4.37;;;;;;;8.22;66.50;101396.28;5047012;28;20456;-67
2022/04/17 09:22:52;;;;;;;4.30;3.90;;;;;;;8.11;66.32;101401.69;5046166;28;20505;-66
2022/04/17 09:25:22;;;;;;;4.43;3.63;;;;;;;8.04;66.40;101406.66;5046260;28;20421;-67
2022/04/17 09:28:01;;;;;;;3.38;3.08;;;;;;;8.13;66.95;101409.47;5046348;28;20453;-67
2022/04/17 09:30:30;;;;;;;4.13;3.83;;;;;;;8.02;67.36;101427.09;5045988;28;20922;-67
2022/04/17 09:32:59;;;;;;;4.57;3.85;;;;;;;7.94;67.43;101412.91;5046348;28;20447;-67
2022/04/17 09:35:27;;;;;;;4.95;3.92;;;;;;;7.81;67.77;101423.69;5045935;28;20444;-67
2022/04/17 09:37:59;;;;;;;5.70;3.85;;;;;;;7.94;67.75;101426.97;5045891;28;20859;-67
2022/04/17 09:40:26;;;;;;;4.93;4.40;;;;;;;7.85;67.68;101418.03;5045726;28;20433;-67
2022/04/17 09:43:09;;;;;;;4.28;3.80;;;;;;;7.82;67.67;101414.81;5045769;28;20451;-67
2022/04/17 09:45:56;;;;;;;4.70;4.20;;;;;;;7.81;67.50;101421.91;5039998;28;20974;-67
2022/04/17 09:48:25;;;;;;;4.70;4.18;;;;;;;7.68;66.53;101431.88;5044786;28;20800;-67
2022/04/17 09:50:51;;;;;;;4.53;4.13;;;;;;;7.92;66.85;101422.75;5045273;28;20448;-67
2022/04/17 09:53:30;;;;;;;6.40;4.30;;;;;;;7.90;66.50;101419.44;5045056;28;20434;-67
2022/04/17 09:56:08;;;;;;;5.28;4.60;;;;;;;7.94;66.90;101418.19;5044334;28;20428;-67
2022/04/17 09:58:39;;;;;;;4.97;4.47;;;;;;;7.91;66.56;101421.94;5048302;28;20455;-67
2022/04/17 10:01:07;;;;;;;5.22;4.40;;;;;;;7.84;66.93;101424.28;5061731;28;20455;-68
2022/04/17 10:03:40;;;;;;;3.95;3.58;;;;;;;7.63;66.91;101426.13;5062876;28;20420;-67
2022/04/17 10:06:07;;;;;;;4.65;4.25;;;;;;;7.63;67.31;101427.00;5063964;28;20415;-67
2022/04/17 10:08:34;;;;;;;3.40;3.10;;;;;;;7.49;67.63;101437.91;5064013;28;20415;-68
2022/04/17 10:11:02;;;;;;;3.30;3.00;;;;;;;7.35;67.38;101444.34;5055652;28;20794;-68
2022/04/17 10:13:32;;;;;;;4.00;3.25;;;;;;;7.29;67.51;101439.59;5051238;28;20485;-67
2022/04/17 10:16:01;;;;;;;3.90;3.53;;;;;;;7.46;67.72;101438.16;5049242;28;20813;-67
2022/04/17 10:18:34;;;;;;;4.67;3.97;;;;;;;7.72;67.46;101435.91;5050040;28;20896;-68
2022/04/17 10:21:05;;;;;;;3.72;3.42;;;;;;;7.51;67.44;101440.38;5050684;28;20443;-68
2022/04/17 10:23:33;;;;;;;4.47;3.58;;;;;;;7.37;67.66;101442.41;5050900;28;20417;-67
2022/04/17 10:26:03;;;;;;;3.50;3.20;;;;;;;7.42;67.91;101428.84;5050903;28;20436;-68
2022/04/17 10:28:35;;;;;;;3.97;3.50;;;;;;;7.46;67.16;101443.44;5051831;28;20425;-68
2022/04/17 10:31:17;;;;;;;3.72;3.30;;;;;;;7.48;66.64;101441.50;5051091;28;20427;-68
2022/04/17 10:34:32;;;;;;;3.50;3.20;;;;;;;7.36;66.98;101438.09;5065057;28;20408;-67
2022/04/17 10:37:22;;;;;;;4.55;4.07;;;;;;;7.52;67.28;101428.88;5065593;28;20824;-67
2022/04/17 10:39:53;;;;;;;5.05;4.50;;;;;;;7.68;67.34;101421.31;5064437;28;20423;-68
2022/04/17 10:42:22;;;;;;;4.53;4.13;;;;;;;7.81;66.67;101423.69;5065933;28;20571;-67
2022/04/17 10:45:02;;;;;;;4.10;3.58;;;;;;;7.78;66.15;101430.09;5065707;28;20424;-68
2022/04/17 10:47:29;;;;;;;5.10;4.53;;;;;;;7.77;66.06;101441.63;5065875;28;20420;-68
2022/04/17 10:50:00;;;;;;;4.25;3.22;;;;;;;7.47;66.73;101427.47;5065918;28;20936;-67
2022/04/17 10:52:29;;;;;;;3.63;2.83;;;;;;;7.42;66.19;101442.88;5065397;28;20431;-68
2022/04/17 10:54:56;;;;;;;4.22;3.83;;;;;;;7.60;66.55;101434.34;5066107;28;20420;-68
2022/04/17 10:57:24;;;;;;;3.60;3.30;;;;;;;7.56;66.83;101436.41;5066648;28;20469;-68
2022/04/17 11:00:28;;;;;;;3.60;3.30;;;;;;;7.74;66.75;101435.75;5065466;28;20408;-68
2022/04/17 11:02:56;;;;;;;3.10;2.80;;;;;;;7.63;66.25;101441.97;5062658;28;20481;-68
2022/04/17 11:08:22;;;;;;;2.55;2.35;;;;;;;7.47;66.86;101439.81;5063367;28;20408;-68
2022/04/17 11:10:53;;;;;;;2.40;2.20;;;;;;;7.30;66.89;101462.38;5065533;28;20416;-68
2022/04/17 11:13:21;;;;;;;2.40;2.20;;;;;;;7.23;66.95;101434.84;5063626;28;20977;-67
2022/04/17 11:15:54;;;;;;;4.60;2.70;;;;;;;7.36;67.59;101448.66;5065568;28;20408;-67
2022/04/17 11:18:25;;;;;;;3.00;2.70;;;;;;;7.43;66.66;101441.88;5066544;28;20418;-78
2022/04/17 11:20:55;;;;;;;3.20;2.85;;;;;;;7.42;67.57;101442.03;5064518;28;20439;-79
2022/04/17 11:24:08;;;;;;;2.70;2.42;;;;;;;7.48;67.28;101446.78;5065042;28;20968;-76
2022/04/17 11:27:09;;;;;;;2.58;2.00;;;;;;;7.33;67.07;101437.53;5037450;28;20931;-77
2022/04/17 11:29:44;;;;;;;2.50;2.10;;;;;;;7.34;66.88;101441.84;5064498;28;20470;-76
2022/04/17 11:32:52;;;;;;;2.60;2.40;;;;;;;7.38;66.17;101441.47;5058880;28;20424;-72
2022/04/17 11:35:21;;;;;;;2.75;2.40;;;;;;;7.64;66.71;101433.94;5065288;28;20494;-71
2022/04/17 11:38:05;;;;;;;2.60;2.33;;;;;;;7.42;65.87;101437.59;5064098;28;20842;-73
2022/04/17 11:40:35;;;;;;;2.35;1.90;;;;;;;7.37;65.84;101439.78;5059031;28;20457;-78
2022/04/17 11:43:11;;;;;;;1.98;1.77;;;;;;;7.33;65.31;101451.56;5064817;28;20408;-75
2022/04/17 11:45:38;;;;;;;2.67;2.40;;;;;;;7.71;66.10;101430.78;5051160;28;20447;-75
2022/04/17 11:48:08;;;;;;;3.15;2.67;;;;;;;7.75;66.02;101440.91;5051822;28;20949;-73
2022/04/17 11:50:35;;;;;;;2.58;2.20;;;;;;;7.68;64.79;101431.88;5052337;28;20424;-72
2022/04/17 11:53:05;;;;;;;4.63;1.73;;;;;;;7.51;65.47;101446.53;5049094;28;20428;-74
2022/04/17 11:55:34;;;;;;;1.42;1.25;;;;;;;7.37;65.41;101431.03;5051294;28;20405;-71
2022/04/17 11:58:02;;;;;;;2.00;1.40;;;;;;;7.33;65.32;101446.28;5051537;28;20413;-70
2022/04/17 12:00:30;;;;;;;1.40;1.30;;;;;;;7.34;65.01;101434.75;5051332;28;20905;-76
2022/04/17 12:03:01;;;;;;;2.30;1.20;;;;;;;7.38;64.66;101427.41;5056506;28;20416;-74
2022/04/17 12:05:30;;;;;;;1.73;1.40;;;;;;;7.35;64.82;101451.44;5045246;28;20809;-72
2022/04/17 12:08:01;;;;;;;2.67;1.73;;;;;;;7.23;64.37;101432.22;5051849;28;20504;-72
2022/04/17 12:10:32;;;;;;;3.03;2.37;;;;;;;7.30;63.83;101441.28;5051743;28;20477;-71
2022/04/17 12:13:11;;;;;;;2.35;1.80;;;;;;;7.26;64.04;101448.59;5051038;28;20432;-70
2022/04/17 12:15:40;;;;;;;1.67;1.42;;;;;;;7.25;65.02;101432.91;5050780;28;20802;-75
2022/04/17 12:18:06;;;;;;;2.47;1.92;;;;;;;7.25;65.15;101423.19;5048505;28;20458;-73
2022/04/17 12:20:34;;;;;;;1.42;1.27;;;;;;;7.20;64.30;101429.81;5050608;28;20417;-74
2022/04/17 12:23:00;;;;;;;1.73;1.40;;;;;;;7.20;65.11;101443.88;5050308;28;20494;-76
2022/04/17 12:25:29;;;;;;;1.60;1.45;;;;;;;7.27;64.97;101431.84;5050967;28;20423;-75
2022/04/17 12:27:56;;;;;;;2.35;1.60;;;;;;;7.37;65.22;101446.88;5050810;28;20420;-76
2022/04/17 12:30:25;;;;;;;1.50;1.40;;;;;;;7.22;65.50;101444.56;5049329;28;20496;-70